Time;durP1;ratioP1;P1;durP2;ratioP2;P2;SDS_P1;SDS_P2;PMS_P1;PMS_P2;Temp;Humidity;BMP_temperature;BMP_pressure;BME280_temperature;BME280_humidity;BME280_pressure;Samples;Min_cycle;Max_cycle;Signal;HPM_P1;HPM_P2
2022/05/20 00:00:51;;;;;;;0.40;0.20;;;;;;;15.47;49.83;100649.98;103659;1277;138397;-67
2022/05/20 00:03:20;;;;;;;0.40;0.20;;;;;;;15.43;49.80;100642.11;103586;1276;109087;-65
2022/05/20 00:05:49;;;;;;;0.40;0.20;;;;;;;15.41;49.28;100633.62;103713;1276;138815;-67
2022/05/20 00:08:17;;;;;;;0.40;0.20;;;;;;;15.35;49.76;100634.58;103507;1276;95968;-66
2022/05/20 00:10:45;;;;;;;0.40;0.20;;;;;;;15.37;49.24;100633.41;103421;1276;138818;-66
2022/05/20 00:13:13;;;;;;;0.40;0.20;;;;;;;15.38;50.16;100634.44;103981;1276;99437;-67
2022/05/20 00:15:41;;;;;;;0.40;0.20;;;;;;;15.38;49.92;100631.39;103645;1276;108933;-66
2022/05/20 00:18:09;;;;;;;0.40;0.20;;;;;;;15.43;49.25;100628.15;103404;1277;139170;-67
2022/05/20 00:20:37;;;;;;;0.40;0.20;;;;;;;15.41;49.55;100630.20;103563;1276;95230;-65
2022/05/20 00:23:05;;;;;;;0.40;0.20;;;;;;;15.42;49.24;100636.08;103518;1276;139017;-65
2022/05/20 00:25:45;;;;;;;0.40;0.20;;;;;;;15.43;49.47;100638.34;103523;1277;99934;-67
2022/05/20 00:28:24;;;;;;;0.40;0.20;;;;;;;15.46;49.26;100639.85;103562;1277;109137;-65
2022/05/20 00:31:07;;;;;;;0.40;0.20;;;;;;;15.47;49.41;100635.50;103583;1277;138919;-66
2022/05/20 00:33:40;;;;;;;0.40;0.20;;;;;;;15.36;50.48;100622.38;103753;1276;95232;-67
2022/05/20 00:36:08;;;;;;;0.40;0.20;;;;;;;15.17;50.31;100619.03;103591;1276;138348;-67
2022/05/20 00:38:37;;;;;;;0.40;0.20;;;;;;;15.10;50.32;100623.63;103719;1276;99708;-66
2022/05/20 00:41:07;;;;;;;0.40;0.20;;;;;;;15.13;50.38;100629.96;103576;1277;138660;-67
2022/05/20 00:43:46;;;;;;;0.40;0.20;;;;;;;15.16;50.20;100630.34;103970;1276;96173;-65
2022/05/20 00:46:24;;;;;;;0.40;0.20;;;;;;;15.11;50.85;100628.95;103555;1277;95601;-67
2022/05/20 00:48:58;;;;;;;0.40;0.20;;;;;;;15.01;50.49;100628.11;103826;1276;138665;-67
2022/05/20 00:51:32;;;;;;;0.40;0.20;;;;;;;14.97;50.56;100625.94;103511;1277;99332;-67
2022/05/20 00:54:07;;;;;;;0.40;0.30;;;;;;;14.94;50.30;100629.13;103435;1276;138805;-67
2022/05/20 00:56:41;;;;;;;0.40;0.30;;;;;;;14.92;50.75;100628.68;103621;1276;95740;-66
2022/05/20 00:59:18;;;;;;;0.40;0.30;;;;;;;14.87;51.31;100621.02;103447;1277;138496;-67
2022/05/20 01:01:48;;;;;;;0.40;0.30;;;;;;;14.78;51.26;100611.71;103622;1277;109727;-67
2022/05/20 01:04:18;;;;;;;0.40;0.20;;;;;;;14.70;50.94;100609.52;103554;1276;98434;-66
2022/05/20 01:06:47;;;;;;;0.40;0.20;;;;;;;14.65;51.17;100610.27;103753;1276;138277;-66
2022/05/20 01:09:15;;;;;;;0.40;0.20;;;;;;;14.68;51.22;100610.14;103639;1276;95220;-66
2022/05/20 01:11:43;;;;;;;0.40;0.20;;;;;;;14.66;51.03;100607.17;103469;1276;138415;-67
2022/05/20 01:14:20;;;;;;;0.40;0.30;;;;;;;14.65;50.77;100607.23;103760;1276;109850;-67
2022/05/20 01:16:48;;;;;;;0.40;0.20;;;;;;;14.66;50.76;100612.70;103974;1277;138924;-65
2022/05/20 01:19:27;;;;;;;0.40;0.20;;;;;;;14.71;51.02;100612.33;103911;1276;106806;-66
2022/05/20 01:21:55;;;;;;;0.40;0.20;;;;;;;14.72;51.25;100612.83;103965;1276;95204;-66
2022/05/20 01:24:23;;;;;;;0.40;0.20;;;;;;;14.70;50.88;100611.14;103667;1277;138856;-64
2022/05/20 01:26:52;;;;;;;0.40;0.20;;;;;;;14.68;51.06;100607.45;103856;1277;109709;-67
2022/05/20 01:29:20;;;;;;;0.40;0.20;;;;;;;14.68;51.27;100605.31;103462;1277;139436;-65
2022/05/20 01:31:48;;;;;;;0.40;0.30;;;;;;;14.65;51.16;100600.63;103757;1277;108796;-65
2022/05/20 01:34:16;;;;;;;0.40;0.20;;;;;;;14.62;51.35;100603.20;103611;1276;95742;-66
2022/05/20 01:36:44;;;;;;;0.40;0.20;;;;;;;14.60;51.21;100598.64;103448;1276;139941;-67
2022/05/20 01:39:12;;;;;;;0.40;0.30;;;;;;;14.60;51.37;100595.60;103448;1277;109649;-67
2022/05/20 01:41:55;;;;;;;0.40;0.30;;;;;;;14.52;51.50;100593.21;103454;1277;138932;-66
2022/05/20 01:44:44;;;;;;;0.40;0.20;;;;;;;14.51;51.81;100591.81;103435;1276;108847;-66
2022/05/20 01:47:20;;;;;;;0.40;0.20;;;;;;;14.51;51.74;100585.59;103707;1276;139073;-65
2022/05/20 01:50:23;;;;;;;0.40;0.20;;;;;;;14.37;51.17;100585.23;103543;1276;95517;-66
2022/05/20 01:52:51;;;;;;;0.40;0.30;;;;;;;14.22;51.35;100582.42;103398;1277;138947;-68
2022/05/20 01:55:25;;;;;;;0.40;0.20;;;;;;;14.21;51.78;100575.65;103747;1277;99510;-65
2022/05/20 01:58:16;;;;;;;0.40;0.30;;;;;;;14.21;50.97;100574.79;103629;1277;108799;-66
2022/05/20 02:00:47;;;;;;;0.40;0.20;;;;;;;14.17;50.74;100568.69;103464;1277;138513;-67
2022/05/20 02:03:26;;;;;;;0.40;0.20;;;;;;;14.13;50.94;100564.00;103539;1276;95210;-66
2022/05/20 02:05:57;;;;;;;0.40;0.20;;;;;;;14.15;51.05;100566.98;103472;1276;139144;-68
2022/05/20 02:08:32;;;;;;;0.40;0.30;;;;;;;14.19;50.93;100564.66;103719;1277;98399;-66
2022/05/20 02:11:13;;;;;;;0.40;0.30;;;;;;;14.20;50.58;100564.45;103614;1276;139415;-64
2022/05/20 02:13:46;;;;;;;0.40;0.20;;;;;;;14.24;50.69;100563.80;103487;1277;96162;-66
2022/05/20 02:16:20;;;;;;;0.40;0.20;;;;;;;14.31;50.85;100563.14;103458;1276;96511;-66
2022/05/20 02:18:52;;;;;;;0.40;0.30;;;;;;;14.34;50.84;100564.61;103531;1276;138167;-67
2022/05/20 02:21:25;;;;;;;0.40;0.40;;;;;;;14.34;51.74;100563.21;103456;1276;99425;-68
2022/05/20 02:24:01;;;;;;;0.40;0.20;;;;;;;14.31;51.13;100561.89;103508;1276;138926;-66
2022/05/20 02:26:36;;;;;;;0.40;0.30;;;;;;;14.29;50.78;100564.32;103507;1276;95804;-67
2022/05/20 02:29:10;;;;;;;0.40;0.30;;;;;;;14.37;51.32;100565.77;103380;1276;138307;-69
2022/05/20 02:32:09;;;;;;;0.40;0.20;;;;;;;14.51;51.18;100572.55;103848;1275;109661;-68
2022/05/20 02:34:37;;;;;;;0.40;0.20;;;;;;;14.63;51.42;100574.92;103638;1277;99396;-66
2022/05/20 02:37:25;;;;;;;0.40;0.20;;;;;;;14.62;51.79;100571.38;103538;1277;138062;-65
2022/05/20 02:39:55;;;;;;;0.40;0.20;;;;;;;14.57;51.40;100572.48;103612;1277;95874;-66
2022/05/20 02:42:23;;;;;;;0.40;0.20;;;;;;;14.60;51.55;100572.35;103808;1276;138156;-66
2022/05/20 02:44:51;;;;;;;0.40;0.20;;;;;;;14.56;51.93;100571.27;103775;1277;109776;-66
2022/05/20 02:47:20;;;;;;;0.40;0.30;;;;;;;14.46;52.16;100567.20;103482;1276;139043;-66
2022/05/20 02:49:48;;;;;;;0.40;0.30;;;;;;;14.48;52.18;100565.52;103910;1277;110464;-64
2022/05/20 02:52:15;;;;;;;0.40;0.20;;;;;;;14.51;52.29;100559.32;103777;1276;95142;-66
2022/05/20 02:54:43;;;;;;;0.40;0.30;;;;;;;14.48;51.96;100555.49;103435;1277;138348;-67
2022/05/20 02:57:11;;;;;;;0.40;0.20;;;;;;;14.37;51.59;100547.90;103657;1276;110221;-67
2022/05/20 03:05:15;;;;;;;0.40;0.30;;;;;;;14.44;51.75;100552.43;103423;1276;138669;-66
2022/05/20 03:07:43;;;;;;;0.40;0.20;;;;;;;14.51;52.48;100555.55;103751;1276;95744;-66
2022/05/20 03:10:12;;;;;;;0.40;0.30;;;;;;;14.48;52.64;100550.52;103713;1277;109725;-66
2022/05/20 03:12:40;;;;;;;0.40;0.20;;;;;;;14.48;52.56;100546.55;103505;1276;139128;-65
2022/05/20 03:15:11;;;;;;;0.40;0.20;;;;;;;14.49;52.14;100544.02;103527;1277;108803;-66
2022/05/20 03:17:40;;;;;;;0.40;0.30;;;;;;;14.48;52.49;100545.13;103508;1276;138500;-66
2022/05/20 03:20:09;;;;;;;0.40;0.20;;;;;;;14.48;52.49;100542.12;103572;1276;95543;-66
2022/05/20 03:22:37;;;;;;;0.40;0.20;;;;;;;14.44;52.19;100538.34;103768;1276;109864;-67
2022/05/20 03:25:06;;;;;;;0.40;0.30;;;;;;;14.45;52.56;100534.89;103571;1276;138738;-66
2022/05/20 03:27:34;;;;;;;0.40;0.20;;;;;;;14.47;52.86;100541.08;103975;1276;109167;-67
2022/05/20 03:30:04;;;;;;;0.40;0.20;;;;;;;14.47;52.53;100546.79;103687;1276;138479;-66
2022/05/20 03:32:32;;;;;;;0.40;0.20;;;;;;;14.41;52.23;100542.19;103760;1277;96655;-66
2022/05/20 03:35:00;;;;;;;0.40;0.30;;;;;;;14.34;51.94;100543.20;103922;1277;138443;-66
2022/05/20 03:37:28;;;;;;;0.40;0.30;;;;;;;14.29;52.08;100540.36;103605;1276;99442;-66
2022/05/20 03:39:57;;;;;;;0.40;0.30;;;;;;;14.26;52.00;100539.41;103750;1276;109183;-67
2022/05/20 03:42:26;;;;;;;0.40;0.30;;;;;;;14.25;52.15;100535.36;103702;1277;138484;-66
2022/05/20 03:44:54;;;;;;;0.40;0.30;;;;;;;14.25;52.03;100529.10;103726;1277;95217;-67
2022/05/20 03:47:22;;;;;;;0.40;0.30;;;;;;;14.25;52.00;100524.64;103495;1277;138307;-66
2022/05/20 03:49:50;;;;;;;0.40;0.30;;;;;;;14.25;52.16;100523.56;103671;1276;99386;-67
2022/05/20 03:52:18;;;;;;;0.40;0.30;;;;;;;14.29;52.03;100524.11;103677;1277;108758;-67
2022/05/20 03:54:46;;;;;;;0.40;0.30;;;;;;;14.35;52.44;100528.16;103505;1276;138501;-67
2022/05/20 03:57:14;;;;;;;0.40;0.30;;;;;;;14.36;52.03;100529.88;103470;1277;237042;-67
2022/05/20 03:59:42;;;;;;;0.40;0.30;;;;;;;14.39;52.58;100522.83;103497;1276;138861;-67
2022/05/20 04:02:12;;;;;;;0.40;0.30;;;;;;;14.42;53.21;100517.52;103501;1276;99477;-65
2022/05/20 04:04:44;;;;;;;0.40;0.30;;;;;;;14.50;53.11;100517.53;103676;1277;109066;-67
2022/05/20 04:07:32;;;;;;;0.40;0.30;;;;;;;14.62;52.84;100523.16;103854;1277;95530;-67
2022/05/20 04:10:02;;;;;;;0.40;0.30;;;;;;;14.75;53.00;100523.37;103716;1276;95624;-64
2022/05/20 04:12:34;;;;;;;0.40;0.30;;;;;;;14.80;53.49;100524.77;103496;1277;138286;-67
2022/05/20 04:15:05;;;;;;;0.40;0.30;;;;;;;14.84;53.31;100522.41;103884;1277;98387;-67
2022/05/20 04:17:33;;;;;;;0.40;0.30;;;;;;;14.87;52.84;100521.23;103619;1277;138393;-67
2022/05/20 04:20:03;;;;;;;0.40;0.30;;;;;;;14.94;52.30;100517.19;103442;1276;96480;-66
2022/05/20 04:22:33;;;;;;;0.40;0.20;;;;;;;15.07;52.01;100514.70;103700;1277;96596;-66
2022/05/20 04:25:02;;;;;;;0.40;0.20;;;;;;;15.18;51.36;100517.60;103526;1276;138306;-66
2022/05/20 04:27:30;;;;;;;0.40;0.30;;;;;;;15.26;50.16;100517.41;103610;1276;99466;-67
2022/05/20 04:29:59;;;;;;;0.40;0.30;;;;;;;15.34;49.80;100521.89;103613;1277;137228;-67
2022/05/20 04:32:27;;;;;;;0.40;0.20;;;;;;;15.48;49.15;100517.90;103632;1277;96031;-65
2022/05/20 04:34:55;;;;;;;0.40;0.20;;;;;;;15.53;49.16;100511.56;103420;1276;139071;-67
2022/05/20 04:37:27;;;;;;;0.40;0.20;;;;;;;15.60;48.30;100510.02;103705;1276;109729;-66
2022/05/20 04:39:55;;;;;;;0.40;0.30;;;;;;;15.67;47.97;100503.59;103784;1277;99500;-65
2022/05/20 04:48:01;;;;;;;0.40;0.20;;;;;;;16.16;46.88;100502.42;103375;1277;138354;-68
2022/05/20 04:50:29;;;;;;;0.40;0.20;;;;;;;16.28;46.40;100500.23;103604;1276;109705;-66
2022/05/20 04:53:04;;;;;;;0.40;0.20;;;;;;;16.35;46.56;100490.63;103599;1276;138634;-66
2022/05/20 04:55:32;;;;;;;0.40;0.20;;;;;;;16.39;46.28;100486.81;103864;1277;108781;-66
2022/05/20 04:58:03;;;;;;;0.40;0.20;;;;;;;16.46;46.47;100491.66;103894;1277;95741;-65
2022/05/20 05:00:31;;;;;;;0.40;0.20;;;;;;;16.63;46.47;100492.98;103690;1276;138485;-65
2022/05/20 05:02:59;;;;;;;0.40;0.20;;;;;;;16.86;46.22;100495.25;103715;1276;109715;-66
2022/05/20 05:05:29;;;;;;;0.40;0.20;;;;;;;17.04;45.98;100484.67;103538;1277;140002;-67
2022/05/20 05:07:57;;;;;;;0.40;0.20;;;;;;;17.25;45.90;100492.89;103767;1277;108876;-64
2022/05/20 05:10:30;;;;;;;0.40;0.20;;;;;;;17.45;45.47;100499.91;103696;1277;95643;-63
2022/05/20 05:13:00;;;;;;;0.40;0.10;;;;;;;17.60;45.39;100495.90;103637;1277;138341;-64
2022/05/20 05:15:28;;;;;;;0.40;0.20;;;;;;;17.76;45.19;100491.09;103715;1277;109653;-65
2022/05/20 05:18:21;;;;;;;0.40;0.20;;;;;;;17.92;44.84;100493.45;103654;1277;138757;-67
2022/05/20 05:20:51;;;;;;;0.40;0.20;;;;;;;18.10;44.39;100493.54;103674;1276;107963;-66
2022/05/20 05:23:21;;;;;;;0.40;0.10;;;;;;;18.21;43.90;100499.91;103727;1276;139429;-63
2022/05/20 05:25:50;;;;;;;0.40;0.10;;;;;;;18.31;42.88;100501.73;104922;1277;95664;-66
2022/05/20 05:28:19;;;;;;;0.40;0.10;;;;;;;18.42;42.75;100505.20;103707;1277;110550;-63
2022/05/20 05:30:49;;;;;;;0.40;0.10;;;;;;;18.59;42.84;100507.13;103512;1276;138831;-64
2022/05/20 05:33:19;;;;;;;0.40;0.10;;;;;;;18.71;43.08;100504.95;103656;1276;108834;-65
2022/05/20 05:35:47;;;;;;;0.40;0.10;;;;;;;18.83;42.40;100504.48;103952;1277;138766;-65
2022/05/20 05:38:21;;;;;;;0.40;0.10;;;;;;;18.95;41.26;100505.08;103719;1277;95220;-65
2022/05/20 05:40:51;;;;;;;0.40;0.10;;;;;;;19.03;40.29;100504.00;103537;1277;138947;-65
2022/05/20 05:43:19;;;;;;;0.40;0.10;;;;;;;19.11;39.84;100502.67;103851;1277;99366;-65
2022/05/20 05:45:48;;;;;;;0.40;0.10;;;;;;;19.16;39.03;100502.14;103902;1276;107739;-65
2022/05/20 05:48:17;;;;;;;0.40;0.10;;;;;;;19.26;38.66;100501.20;103730;1277;138722;-63
2022/05/20 05:50:45;;;;;;;0.40;0.10;;;;;;;19.41;38.72;100500.85;103684;1277;95651;-65
2022/05/20 05:53:17;;;;;;;0.40;0.10;;;;;;;19.56;38.65;100505.33;103609;1276;139044;-63
2022/05/20 05:55:48;;;;;;;0.40;0.10;;;;;;;19.64;37.98;100508.77;103622;1276;99980;-64
2022/05/20 05:58:16;;;;;;;0.40;0.10;;;;;;;19.71;37.79;100512.66;103600;1277;108777;-65
2022/05/20 06:00:44;;;;;;;0.40;0.10;;;;;;;19.75;37.70;100510.07;103561;1276;138590;-65
2022/05/20 06:03:15;;;;;;;0.40;0.10;;;;;;;19.80;38.02;100507.82;103694;1277;95246;-66
2022/05/20 06:05:45;;;;;;;0.40;0.10;;;;;;;19.84;38.04;100503.61;103652;1276;138400;-66
2022/05/20 06:08:14;;;;;;;0.40;0.10;;;;;;;19.90;38.25;100501.25;103721;1277;98402;-66
2022/05/20 06:10:44;;;;;;;0.40;0.10;;;;;;;20.03;37.34;100505.10;103833;1277;109244;-66
2022/05/20 06:13:12;;;;;;;0.40;0.10;;;;;;;20.15;37.33;100502.51;103881;1276;95653;-66
2022/05/20 06:15:40;;;;;;;0.40;0.10;;;;;;;20.33;37.23;100497.96;103617;1277;95135;-65
2022/05/20 06:18:09;;;;;;;0.40;0.10;;;;;;;20.49;37.06;100491.85;103564;1277;138399;-65
2022/05/20 06:20:37;;;;;;;0.40;0.10;;;;;;;20.61;36.63;100487.46;103671;1277;99410;-66
2022/05/20 06:23:06;;;;;;;0.40;0.10;;;;;;;20.73;36.83;100489.75;103731;1276;138803;-66
2022/05/20 06:25:34;;;;;;;0.40;0.10;;;;;;;20.84;36.50;100484.84;103675;1276;95629;-65
2022/05/20 06:28:07;;;;;;;0.40;0.10;;;;;;;21.02;36.86;100479.63;103691;1277;95207;-65
2022/05/20 06:30:35;;;;;;;0.40;0.10;;;;;;;21.22;36.37;100478.79;103732;1277;138684;-65
2022/05/20 06:33:04;;;;;;;0.40;0.10;;;;;;;21.31;36.44;100482.67;103645;1277;98416;-64
2022/05/20 06:41:07;;;;;;;0.40;0.10;;;;;;;21.50;36.12;100479.04;103517;1277;138943;-65
2022/05/20 06:43:35;;;;;;;0.40;0.10;;;;;;;21.55;36.29;100479.41;103777;1277;108787;-66
2022/05/20 06:46:04;;;;;;;0.40;0.10;;;;;;;21.56;36.12;100475.58;103690;1277;99921;-66
2022/05/20 06:48:51;;;;;;;0.40;0.10;;;;;;;21.59;36.31;100476.09;103509;1277;138337;-62
2022/05/20 06:51:22;;;;;;;0.40;0.10;;;;;;;21.66;36.26;100470.36;103735;1277;95903;-64
2022/05/20 06:53:52;;;;;;;0.40;0.10;;;;;;;21.73;36.16;100475.79;103364;1276;138506;-66
2022/05/20 06:56:23;;;;;;;0.40;0.10;;;;;;;21.77;36.33;100474.93;103693;1274;110497;-66
2022/05/20 06:58:51;;;;;;;0.40;0.10;;;;;;;21.79;35.95;100473.40;104177;1277;138420;-65
2022/05/20 07:01:19;;;;;;;0.40;0.10;;;;;;;21.76;36.09;100481.52;103808;1276;108705;-66
2022/05/20 07:03:47;;;;;;;0.40;0.10;;;;;;;21.79;36.10;100480.25;103629;1276;95268;-65
2022/05/20 07:06:17;;;;;;;0.40;0.10;;;;;;;21.79;36.38;100479.55;103597;1276;138733;-66
2022/05/20 07:08:49;;;;;;;0.40;0.10;;;;;;;21.80;36.41;100483.39;103620;1277;109718;-65
2022/05/20 07:11:20;;;;;;;0.40;0.10;;;;;;;21.88;36.49;100484.11;103452;1277;139222;-67
2022/05/20 07:13:52;;;;;;;0.40;0.10;;;;;;;22.03;36.34;100478.70;103575;1276;109240;-66
2022/05/20 07:16:20;;;;;;;0.40;0.10;;;;;;;22.18;36.74;100477.25;103664;1277;95234;-66
2022/05/20 07:18:49;;;;;;;0.40;0.00;;;;;;;22.27;36.24;100473.70;103769;1277;138082;-65
2022/05/20 07:21:18;;;;;;;0.40;0.10;;;;;;;22.34;36.40;100471.04;103869;1277;109348;-64
2022/05/20 07:23:47;;;;;;;0.40;0.00;;;;;;;22.42;35.92;100467.13;103498;1277;139181;-64
2022/05/20 07:26:17;;;;;;;0.40;0.10;;;;;;;22.45;35.97;100468.02;103840;1276;109359;-65
2022/05/20 07:28:46;;;;;;;0.40;0.00;;;;;;;22.49;36.35;100475.73;103448;1277;138596;-65
2022/05/20 07:31:15;;;;;;;0.40;0.10;;;;;;;22.55;36.31;100483.95;104937;1277;95164;-65
2022/05/20 07:33:43;;;;;;;0.40;0.10;;;;;;;22.60;36.55;100475.79;103427;1277;109691;-65
2022/05/20 07:36:11;;;;;;;0.40;0.00;;;;;;;22.65;36.24;100467.77;103518;1277;138766;-62
2022/05/20 07:38:39;;;;;;;0.40;0.00;;;;;;;22.74;36.86;100467.45;105096;1277;108629;-65
2022/05/20 07:41:07;;;;;;;0.40;0.00;;;;;;;22.83;36.80;100472.97;103705;1277;139549;-65
2022/05/20 07:43:36;;;;;;;0.40;0.00;;;;;;;22.92;36.39;100474.98;103356;1277;95218;-66
2022/05/20 07:46:04;;;;;;;0.40;0.00;;;;;;;23.07;36.57;100478.35;103578;1277;109796;-66
2022/05/20 07:48:33;;;;;;;0.40;0.00;;;;;;;23.20;36.44;100481.73;103802;1277;139102;-65
2022/05/20 07:51:10;;;;;;;0.40;0.00;;;;;;;23.25;36.51;100483.19;103543;1277;108429;-65
2022/05/20 07:53:44;;;;;;;0.40;0.00;;;;;;;23.25;36.02;100477.39;103440;1276;138530;-65
2022/05/20 07:56:17;;;;;;;0.40;0.00;;;;;;;23.20;36.22;100474.84;103650;1276;96142;-64
2022/05/20 07:58:50;;;;;;;0.40;0.00;;;;;;;23.25;36.58;100469.20;103465;1277;138332;-65
2022/05/20 08:01:22;;;;;;;0.40;0.00;;;;;;;23.37;36.41;100462.63;103356;1277;99657;-65
2022/05/20 08:06:43;;;;;;;0.40;0.00;;;;;;;23.60;36.35;100452.71;103392;1277;138542;-65
2022/05/20 08:09:11;;;;;;;0.40;0.00;;;;;;;23.70;36.72;100455.31;103648;1277;95243;-65
2022/05/20 08:11:39;;;;;;;0.40;0.00;;;;;;;23.80;36.19;100454.88;103284;1277;138673;-65
2022/05/20 08:14:07;;;;;;;0.40;0.00;;;;;;;23.83;36.01;100449.91;103493;1277;99410;-65
2022/05/20 08:16:35;;;;;;;0.40;0.00;;;;;;;23.91;36.22;100448.71;103313;1276;108521;-66
2022/05/20 08:19:03;;;;;;;0.40;0.00;;;;;;;24.07;36.00;100448.23;103387;1277;138327;-66
2022/05/20 08:21:32;;;;;;;0.40;0.00;;;;;;;24.08;36.07;100448.84;103526;1277;95171;-64
2022/05/20 08:24:00;;;;;;;0.40;0.00;;;;;;;24.12;35.64;100450.09;103402;1276;139741;-65
2022/05/20 08:26:28;;;;;;;0.40;0.00;;;;;;;24.22;35.79;100446.16;103700;1277;99507;-64
2022/05/20 08:28:56;;;;;;;0.40;0.00;;;;;;;24.41;35.84;100445.73;103454;1277;138512;-65
2022/05/20 08:31:25;;;;;;;0.40;0.00;;;;;;;24.60;35.39;100441.41;103555;1277;95331;-64
2022/05/20 08:33:53;;;;;;;0.40;0.00;;;;;;;24.68;34.65;100438.38;103673;1276;95139;-65
2022/05/20 08:36:21;;;;;;;0.40;0.00;;;;;;;24.76;34.42;100435.01;103679;1276;140598;-65
2022/05/20 08:38:49;;;;;;;0.40;0.00;;;;;;;24.86;34.15;100433.80;103907;1276;99346;-65
2022/05/20 08:41:25;;;;;;;0.40;0.00;;;;;;;24.97;34.49;100431.00;103491;1276;139410;-66
2022/05/20 08:43:53;;;;;;;0.40;0.00;;;;;;;25.15;34.18;100437.63;103648;1277;95240;-66
2022/05/20 08:46:23;;;;;;;0.40;0.00;;;;;;;25.28;33.74;100435.79;103597;1277;96101;-65
2022/05/20 08:48:55;;;;;;;0.40;0.00;;;;;;;25.37;33.72;100432.87;103576;1277;138354;-65
2022/05/20 08:51:28;;;;;;;0.40;0.00;;;;;;;25.47;33.55;100427.76;104167;1276;99581;-66
2022/05/20 08:53:56;;;;;;;0.40;0.00;;;;;;;25.66;33.08;100425.90;103459;1277;138764;-65
2022/05/20 08:56:25;;;;;;;0.40;0.00;;;;;;;25.79;32.79;100420.73;103579;1277;95231;-65
2022/05/20 08:59:02;;;;;;;0.40;0.00;;;;;;;25.94;33.08;100413.27;103316;1277;138491;-65
2022/05/20 09:01:37;;;;;;;0.40;0.00;;;;;;;26.18;33.14;100410.16;103490;1277;109016;-65
2022/05/20 09:04:07;;;;;;;0.40;0.00;;;;;;;26.40;32.51;100408.69;103733;1276;98384;-64
2022/05/20 09:07:01;;;;;;;0.40;0.00;;;;;;;26.56;32.22;100405.75;103562;1277;138300;-66
2022/05/20 09:09:52;;;;;;;0.40;0.00;;;;;;;26.77;32.54;100402.91;103660;1277;95263;-65
2022/05/20 09:12:28;;;;;;;0.40;0.00;;;;;;;26.92;31.59;100402.75;103679;1276;138307;-65
2022/05/20 09:17:46;;;;;;;0.40;0.00;;;;;;;27.08;31.00;100412.19;103371;1277;138428;-65
2022/05/20 09:20:18;;;;;;;0.40;0.00;;;;;;;27.42;31.33;100409.77;103541;1277;108903;-65
2022/05/20 09:22:55;;;;;;;0.40;0.00;;;;;;;27.79;30.45;100411.08;103542;1276;138618;-65
2022/05/20 09:25:27;;;;;;;0.40;0.00;;;;;;;28.13;30.17;100405.63;103649;1278;95204;-67
2022/05/20 09:28:14;;;;;;;0.40;0.00;;;;;;;29.07;29.71;100404.44;103687;1277;109761;-65
2022/05/20 09:30:47;;;;;;;0.40;0.00;;;;;;;30.51;26.93;100396.75;103498;1278;138478;-65
2022/05/20 09:33:21;;;;;;;0.40;0.00;;;;;;;31.58;25.34;100401.27;103635;1277;108758;-66
2022/05/20 09:36:02;;;;;;;0.40;0.00;;;;;;;32.62;24.41;100402.74;103619;1277;138506;-65
2022/05/20 09:38:40;;;;;;;0.40;0.00;;;;;;;33.64;23.10;100396.73;103498;1277;95204;-65
2022/05/20 09:41:20;;;;;;;0.40;0.00;;;;;;;34.61;22.26;100399.52;103396;1277;138527;-66
2022/05/20 09:43:57;;;;;;;0.40;0.00;;;;;;;35.28;21.26;100398.27;103407;1276;98932;-64
2022/05/20 09:46:51;;;;;;;0.40;0.00;;;;;;;35.97;20.65;100400.04;103463;1277;109739;-66
2022/05/20 09:49:28;;;;;;;0.40;0.00;;;;;;;36.65;19.80;100400.95;103530;1277;95735;-65
2022/05/20 09:52:00;;;;;;;0.40;0.00;;;;;;;37.06;19.35;100390.83;103485;1277;95811;-66
2022/05/20 09:54:28;;;;;;;0.40;0.00;;;;;;;37.48;19.05;100390.77;103709;1276;138159;-65
2022/05/20 09:57:10;;;;;;;0.40;0.00;;;;;;;37.93;18.68;100385.48;103498;1276;99311;-66
2022/05/20 09:59:48;;;;;;;0.40;0.00;;;;;;;37.96;18.33;100387.09;103436;1278;138334;-66
2022/05/20 10:02:33;;;;;;;0.40;0.00;;;;;;;38.04;18.75;100384.86;103665;1278;95240;-65
2022/05/20 10:05:20;;;;;;;0.40;0.00;;;;;;;37.91;18.47;100386.08;103929;1277;139142;-66
2022/05/20 10:07:51;;;;;;;0.40;0.00;;;;;;;37.05;19.22;100392.12;103507;1278;109715;-65
2022/05/20 10:10:35;;;;;;;0.40;0.00;;;;;;;37.44;19.07;100379.91;103454;1277;98960;-66
2022/05/20 10:13:07;;;;;;;0.40;0.00;;;;;;;38.04;19.06;100375.59;103411;1277;138254;-65
2022/05/20 10:15:44;;;;;;;0.40;0.00;;;;;;;38.61;18.66;100370.94;103823;1278;95583;-65
2022/05/20 10:18:52;;;;;;;0.40;0.00;;;;;;;38.90;18.56;100364.54;103351;1276;138322;-65
2022/05/20 10:21:52;;;;;;;0.40;0.00;;;;;;;39.04;18.52;100362.15;103333;1278;109820;-66
2022/05/20 10:24:32;;;;;;;0.40;0.00;;;;;;;38.48;18.48;100368.14;103235;1278;138560;-67
2022/05/20 10:27:08;;;;;;;0.40;0.00;;;;;;;38.29;18.89;100355.92;103581;1277;108981;-66
2022/05/20 10:32:59;;;;;;;0.40;0.00;;;;;;;39.31;18.74;100356.64;103602;1277;95624;-66
2022/05/20 10:35:38;;;;;;;0.40;0.00;;;;;;;39.77;18.37;100358.85;103511;1277;138503;-66
2022/05/20 10:38:17;;;;;;;0.40;0.00;;;;;;;39.62;17.75;100354.81;103581;1278;99394;-65
2022/05/20 10:41:20;;;;;;;0.40;0.00;;;;;;;39.49;17.78;100342.88;104124;1277;138661;-66
2022/05/20 10:50:32;;;;;;;0.40;0.00;;;;;;;40.28;17.80;100355.09;103530;1277;110014;-64
2022/05/20 10:53:08;;;;;;;0.40;0.00;;;;;;;39.21;17.97;100344.80;103364;1277;138713;-66
2022/05/20 10:56:03;;;;;;;0.40;0.00;;;;;;;38.66;18.87;100340.92;103464;1277;107803;-66
2022/05/20 10:58:52;;;;;;;0.40;0.00;;;;;;;38.06;19.86;100334.59;103950;1277;95573;-66
2022/05/20 11:01:49;;;;;;;0.40;0.00;;;;;;;37.02;20.73;100337.52;103488;1277;96417;-65
2022/05/20 11:04:45;;;;;;;0.40;0.00;;;;;;;36.09;21.96;100338.06;103515;1277;110097;-65
2022/05/20 11:07:13;;;;;;;0.40;0.00;;;;;;;35.48;22.74;100334.73;103624;1277;98861;-65
2022/05/20 11:09:47;;;;;;;0.40;0.00;;;;;;;34.93;23.45;100332.26;103532;1277;108822;-65
2022/05/20 11:12:41;;;;;;;0.40;0.00;;;;;;;34.37;24.20;100329.14;103560;1277;139848;-65
2022/05/20 11:15:21;;;;;;;0.40;0.00;;;;;;;33.84;24.84;100330.73;103536;1277;95227;-64
2022/05/20 11:18:02;;;;;;;0.40;0.00;;;;;;;33.17;25.86;100327.98;103369;1277;138300;-67
2022/05/20 11:21:08;;;;;;;0.40;0.00;;;;;;;32.82;26.32;100326.98;103478;1277;99380;-67
2022/05/20 11:23:44;;;;;;;0.40;0.00;;;;;;;32.19;27.12;100335.69;103425;1277;138638;-67
2022/05/20 11:26:30;;;;;;;0.40;0.00;;;;;;;31.80;27.43;100332.42;103418;1277;96031;-68
2022/05/20 11:29:24;;;;;;;0.40;0.00;;;;;;;31.60;27.85;100332.95;103288;1277;138960;-66
2022/05/20 11:32:02;;;;;;;0.40;0.00;;;;;;;31.33;28.30;100327.02;103283;1277;109622;-66
2022/05/20 11:34:51;;;;;;;0.40;0.00;;;;;;;31.16;29.19;100323.33;103632;1277;99848;-66
2022/05/20 11:37:29;;;;;;;0.40;0.00;;;;;;;30.93;28.99;100325.58;103575;1277;108884;-66
2022/05/20 11:40:16;;;;;;;0.40;0.00;;;;;;;30.73;29.20;100329.29;103568;1277;95257;-66
2022/05/20 11:43:02;;;;;;;0.40;0.00;;;;;;;30.57;29.72;100329.10;103839;1277;139220;-65
2022/05/20 11:46:00;;;;;;;0.40;0.00;;;;;;;30.54;29.73;100319.52;103617;1278;110233;-66
2022/05/20 11:48:48;;;;;;;0.40;0.00;;;;;;;30.34;30.02;100316.98;103584;1277;138462;-66
2022/05/20 11:51:20;;;;;;;0.40;0.00;;;;;;;30.23;30.09;100315.02;103505;1277;108768;-66
2022/05/20 11:54:04;;;;;;;0.40;0.00;;;;;;;30.18;28.85;100304.45;103536;1277;139259;-67
2022/05/20 11:56:37;;;;;;;0.40;0.00;;;;;;;30.10;28.89;100302.95;103997;1277;95208;-65
2022/05/20 11:59:25;;;;;;;0.40;0.00;;;;;;;30.11;29.30;100305.91;103519;1277;139634;-66
2022/05/20 12:01:57;;;;;;;0.40;0.00;;;;;;;30.08;29.42;100306.63;103562;1277;99502;-65
2022/05/20 12:04:28;;;;;;;0.40;0.00;;;;;;;30.04;29.61;100296.60;103760;1277;108349;-67
2022/05/20 12:07:01;;;;;;;0.40;0.00;;;;;;;30.02;29.76;100294.95;103764;1277;138640;-67
2022/05/20 12:09:41;;;;;;;0.40;0.00;;;;;;;30.00;29.63;100298.90;103656;1277;95340;-66
2022/05/20 12:12:12;;;;;;;0.40;0.00;;;;;;;29.89;29.54;100303.23;103748;1277;138912;-66